Time;durP1;ratioP1;P1;durP2;ratioP2;P2;SDS_P1;SDS_P2;PMS_P1;PMS_P2;Temp;Humidity;BMP_temperature;BMP_pressure;BME280_temperature;BME280_humidity;BME280_pressure;Samples;Min_cycle;Max_cycle;Signal;HPM_P1;HPM_P2
2023/08/26 00:00:08;;;;;;;4.72;2.80;;;;;;;18.00;100.00;100761.97;4993072;28;20046;-83
2023/08/26 00:02:34;;;;;;;4.18;3.08;;;;;;;17.95;100.00;100759.63;4996778;28;20060;-82
2023/08/26 00:04:59;;;;;;;6.53;4.00;;;;;;;18.16;100.00;100760.50;5004947;28;20030;-83
2023/08/26 00:07:25;;;;;;;4.88;3.53;;;;;;;17.83;100.00;100754.59;4996671;28;20501;-82
2023/08/26 00:09:50;;;;;;;6.03;3.95;;;;;;;17.87;100.00;100750.47;4998972;28;20591;-82
2023/08/26 00:12:15;;;;;;;8.48;4.45;;;;;;;17.96;100.00;100749.94;4991590;28;20342;-82
2023/08/26 00:14:41;;;;;;;4.53;3.10;;;;;;;17.90;100.00;100746.00;4983167;28;20078;-83
2023/08/26 00:17:06;;;;;;;6.07;3.58;;;;;;;17.99;100.00;100748.25;4988363;28;20049;-82
2023/08/26 00:19:32;;;;;;;5.00;3.40;;;;;;;17.85;100.00;100729.47;4996190;28;20038;-82
2023/08/26 00:21:57;;;;;;;6.75;3.33;;;;;;;17.96;100.00;100746.28;5003430;28;20494;-82
2023/08/26 00:24:23;;;;;;;5.97;3.55;;;;;;;18.05;100.00;100733.16;4998906;28;20037;-83
2023/08/26 00:26:48;;;;;;;8.13;3.92;;;;;;;17.88;100.00;100739.97;4999604;28;20523;-82
2023/08/26 00:29:14;;;;;;;11.10;4.28;;;;;;;17.83;100.00;100738.41;4992862;28;20041;-84
2023/08/26 00:31:39;;;;;;;7.78;4.15;;;;;;;17.91;100.00;100743.94;4997397;28;20057;-82
2023/08/26 00:34:05;;;;;;;7.45;4.05;;;;;;;17.79;100.00;100748.16;4993710;28;20030;-82
2023/08/26 00:36:30;;;;;;;5.47;3.88;;;;;;;17.84;100.00;100733.56;4999807;28;20033;-82
2023/08/26 00:38:57;;;;;;;5.07;3.40;;;;;;;17.80;100.00;100732.78;4994875;28;20490;-82
2023/08/26 00:41:22;;;;;;;6.03;3.20;;;;;;;17.95;100.00;100748.31;4990424;28;20500;-82
2023/08/26 00:43:48;;;;;;;5.40;2.80;;;;;;;17.97;100.00;100745.06;5000965;28;20038;-82
2023/08/26 00:46:14;;;;;;;6.47;3.60;;;;;;;17.97;100.00;100754.34;4992527;28;20022;-83
2023/08/26 00:48:39;;;;;;;10.68;3.35;;;;;;;17.86;100.00;100748.09;4997214;28;20042;-82
2023/08/26 00:51:05;;;;;;;7.68;3.42;;;;;;;17.91;100.00;100750.41;5004504;28;20117;-82
2023/08/26 00:53:31;;;;;;;10.85;3.22;;;;;;;17.92;100.00;100754.84;5002368;28;20032;-82
2023/08/26 00:55:59;;;;;;;4.43;3.08;;;;;;;17.81;100.00;100748.53;5007310;28;20036;-81
2023/08/26 00:58:25;;;;;;;4.82;2.90;;;;;;;17.92;100.00;100751.19;5000984;28;20133;-82
2023/08/26 01:00:51;;;;;;;5.40;3.25;;;;;;;17.91;100.00;100753.25;4998566;28;20084;-81
2023/08/26 01:03:17;;;;;;;4.95;2.92;;;;;;;17.75;100.00;100741.75;4996609;28;20061;-82
2023/08/26 01:05:42;;;;;;;5.50;2.75;;;;;;;17.82;100.00;100758.63;5001524;28;20024;-82
2023/08/26 01:08:08;;;;;;;5.43;2.80;;;;;;;17.85;100.00;100746.47;5004239;28;20037;-83
2023/08/26 01:10:49;;;;;;;4.70;2.22;;;;;;;17.86;100.00;100754.53;5004135;28;20030;-82
2023/08/26 01:13:17;;;;;;;7.40;2.97;;;;;;;17.83;100.00;100734.78;5002019;28;20042;-82
2023/08/26 01:15:49;;;;;;;4.70;2.05;;;;;;;17.79;100.00;100736.84;5001191;28;20509;-82
2023/08/26 01:18:15;;;;;;;5.28;3.30;;;;;;;17.88;100.00;100737.13;5001307;28;20030;-82
2023/08/26 01:20:42;;;;;;;5.82;2.45;;;;;;;17.80;100.00;100727.13;5002936;28;20057;-83
2023/08/26 01:23:16;;;;;;;3.40;2.70;;;;;;;17.85;100.00;100724.63;5007384;28;20033;-82
2023/08/26 01:25:41;;;;;;;6.57;3.45;;;;;;;17.70;100.00;100728.91;5003016;28;20104;-81
2023/08/26 01:28:07;;;;;;;5.47;2.80;;;;;;;17.70;100.00;100722.44;5000860;28;20038;-82
2023/08/26 01:30:34;;;;;;;3.88;2.67;;;;;;;17.83;100.00;100723.44;5004293;28;20117;-82
2023/08/26 01:33:15;;;;;;;6.47;3.05;;;;;;;17.85;100.00;100729.47;4995872;28;20058;-82
2023/08/26 01:35:43;;;;;;;5.85;3.10;;;;;;;17.85;100.00;100726.66;5000409;28;20567;-82
2023/08/26 01:38:09;;;;;;;9.75;3.20;;;;;;;17.75;100.00;100714.28;5011752;28;20442;-82
2023/08/26 01:40:35;;;;;;;5.80;2.53;;;;;;;17.76;100.00;100723.56;5000009;28;20068;-82
2023/08/26 01:43:03;;;;;;;8.05;2.85;;;;;;;17.68;100.00;100720.03;5004592;28;20030;-90
2023/08/26 01:45:28;;;;;;;6.95;3.10;;;;;;;17.65;100.00;100733.03;5000273;28;20040;-90
2023/08/26 01:47:54;;;;;;;7.22;3.00;;;;;;;17.60;100.00;100730.72;4999548;28;20030;-88
2023/08/26 01:50:19;;;;;;;3.80;2.80;;;;;;;17.59;100.00;100734.75;5000314;28;20040;-89
2023/08/26 01:52:45;;;;;;;6.80;3.45;;;;;;;17.68;100.00;100737.81;4999231;28;20030;-89
2023/08/26 01:55:10;;;;;;;4.00;3.00;;;;;;;17.53;100.00;100724.34;5003183;28;20034;-90
2023/08/26 01:57:36;;;;;;;6.07;3.25;;;;;;;17.67;100.00;100727.75;5001560;28;20126;-90
2023/08/26 02:00:01;;;;;;;7.22;3.63;;;;;;;17.53;100.00;100733.63;4997197;28;20037;-91
2023/08/26 02:02:26;;;;;;;6.03;3.38;;;;;;;17.48;100.00;100739.81;5003124;28;20497;-85
2023/08/26 02:04:52;;;;;;;6.95;3.70;;;;;;;17.19;100.00;100728.13;5004706;28;20033;-90
2023/08/26 02:07:17;;;;;;;8.35;4.00;;;;;;;16.81;100.00;100729.06;4995246;28;20981;-90
2023/08/26 02:09:43;;;;;;;4.20;2.90;;;;;;;17.25;100.00;100732.06;5000909;28;20045;-89
2023/08/26 02:12:08;;;;;;;5.18;3.08;;;;;;;17.34;100.00;100729.50;4995483;28;20960;-89
2023/08/26 02:14:33;;;;;;;7.40;3.70;;;;;;;17.39;100.00;100725.38;5000506;28;20439;-89
2023/08/26 02:16:59;;;;;;;7.50;4.05;;;;;;;17.50;100.00;100731.69;4995983;28;20048;-90
2023/08/26 02:19:24;;;;;;;5.93;3.60;;;;;;;17.47;100.00;100727.66;5002525;28;21764;-88
2023/08/26 02:21:51;;;;;;;6.15;3.92;;;;;;;17.57;100.00;100731.56;5003937;28;20454;-86
2023/08/26 02:24:17;;;;;;;19.70;5.00;;;;;;;17.50;100.00;100728.84;5002265;28;20870;-89
2023/08/26 02:26:42;;;;;;;8.07;4.07;;;;;;;17.56;100.00;100732.78;4998002;28;20029;-90
2023/08/26 02:29:07;;;;;;;5.47;3.50;;;;;;;17.53;100.00;100727.97;5004390;28;20642;-91
2023/08/26 02:31:33;;;;;;;6.43;3.95;;;;;;;17.59;100.00;100733.97;4997848;28;20038;-90
2023/08/26 02:33:58;;;;;;;7.35;3.70;;;;;;;17.54;100.00;100732.44;5015457;28;20034;-91
2023/08/26 02:36:24;;;;;;;7.30;3.78;;;;;;;17.48;100.00;100728.47;4993632;28;20052;-90
2023/08/26 02:38:49;;;;;;;5.65;3.72;;;;;;;17.47;100.00;100732.53;4998891;28;20500;-91
2023/08/26 02:41:15;;;;;;;6.63;3.97;;;;;;;17.40;100.00;100721.34;5010593;28;20092;-91
2023/08/26 02:43:40;;;;;;;7.40;4.38;;;;;;;16.98;100.00;100724.38;5001015;28;20455;-88
2023/08/26 02:46:05;;;;;;;7.07;3.88;;;;;;;17.28;100.00;100728.38;4999490;28;20128;-90
2023/08/26 02:48:31;;;;;;;6.07;3.28;;;;;;;17.32;100.00;100725.50;5000218;28;20483;-90
2023/08/26 02:50:57;;;;;;;6.10;3.50;;;;;;;17.50;100.00;100737.34;4999595;28;20037;-91
2023/08/26 02:53:24;;;;;;;6.93;3.47;;;;;;;17.40;100.00;100724.16;4993805;28;20132;-87
2023/08/26 02:55:50;;;;;;;8.25;3.65;;;;;;;17.41;100.00;100722.91;4996515;28;20097;-92
2023/08/26 02:58:15;;;;;;;5.00;3.30;;;;;;;17.39;100.00;100725.38;4999937;28;20105;-91
2023/08/26 03:00:40;;;;;;;7.32;3.30;;;;;;;17.45;100.00;100718.00;5001318;28;20033;-92
2023/08/26 03:03:06;;;;;;;7.28;3.75;;;;;;;17.47;100.00;100721.22;4997378;28;20057;-91
2023/08/26 03:05:31;;;;;;;4.43;2.90;;;;;;;17.44;100.00;100716.41;4997062;28;20030;-90
2023/08/26 03:07:57;;;;;;;4.20;3.15;;;;;;;17.44;100.00;100722.09;5001779;28;20060;-92
2023/08/26 03:10:22;;;;;;;5.47;3.67;;;;;;;17.34;100.00;100723.03;4998694;28;20026;-92
2023/08/26 03:12:48;;;;;;;5.07;3.17;;;;;;;17.44;100.00;100710.75;5003468;28;20029;-90
2023/08/26 03:15:13;;;;;;;5.30;3.53;;;;;;;17.36;100.00;100712.91;4996857;28;20045;-92
2023/08/26 03:17:39;;;;;;;6.65;3.35;;;;;;;17.41;100.00;100709.59;5001138;28;20566;-91
2023/08/26 03:20:05;;;;;;;6.13;3.05;;;;;;;17.43;100.00;100709.16;5005325;28;20029;-92
2023/08/26 03:22:30;;;;;;;7.07;3.13;;;;;;;17.50;100.00;100708.22;5002181;28;20034;-89
2023/08/26 03:24:55;;;;;;;5.35;3.28;;;;;;;17.38;100.00;100701.16;5001427;28;20397;-91
2023/08/26 03:27:21;;;;;;;8.80;3.78;;;;;;;17.39;100.00;100702.75;5000268;28;20394;-91
2023/08/26 03:29:46;;;;;;;5.45;3.22;;;;;;;17.47;100.00;100698.56;4999288;28;20371;-90
2023/08/26 03:32:12;;;;;;;3.78;2.38;;;;;;;17.48;100.00;100706.63;4998395;28;20034;-92
2023/08/26 03:34:37;;;;;;;8.57;2.95;;;;;;;17.45;100.00;100709.53;5001723;28;20049;-92
2023/08/26 03:37:03;;;;;;;4.05;2.53;;;;;;;17.42;100.00;100716.84;4999738;28;20037;-91
2023/08/26 03:39:29;;;;;;;4.68;2.55;;;;;;;17.35;100.00;100725.47;4997143;28;20034;-88
2023/08/26 03:41:54;;;;;;;6.15;2.28;;;;;;;17.29;100.00;100718.69;5002424;28;20037;-90
2023/08/26 03:44:20;;;;;;;6.10;3.40;;;;;;;17.13;100.00;100713.66;5004122;28;20077;-89
2023/08/26 03:46:45;;;;;;;6.75;3.65;;;;;;;16.84;100.00;100716.94;4997324;28;20113;-89
2023/08/26 03:49:11;;;;;;;5.43;3.28;;;;;;;16.61;100.00;100711.13;5005309;28;20410;-91
2023/08/26 03:51:36;;;;;;;4.25;3.03;;;;;;;16.99;100.00;100725.19;5008106;28;20026;-91
2023/08/26 03:54:01;;;;;;;4.25;2.60;;;;;;;17.07;100.00;100727.47;5000237;28;20117;-90
2023/08/26 03:56:28;;;;;;;7.10;3.80;;;;;;;16.90;100.00;100727.75;4999498;28;20914;-92
2023/08/26 03:58:56;;;;;;;7.85;4.18;;;;;;;16.94;100.00;100729.28;5000384;28;20036;-91
2023/08/26 04:01:22;;;;;;;7.85;4.20;;;;;;;16.91;100.00;100734.97;4997861;28;20030;-92
2023/08/26 04:03:52;;;;;;;10.75;4.10;;;;;;;16.75;100.00;100733.56;4999694;28;20049;-92
2023/08/26 04:06:18;;;;;;;7.32;4.28;;;;;;;16.95;100.00;100727.25;4999752;28;20025;-88
2023/08/26 04:08:44;;;;;;;8.10;4.45;;;;;;;16.84;100.00;100719.75;4998393;28;20045;-91
2023/08/26 04:11:10;;;;;;;11.43;5.75;;;;;;;16.74;100.00;100726.31;4996988;28;20034;-90
2023/08/26 04:13:35;;;;;;;8.20;5.60;;;;;;;16.62;100.00;100738.19;4994026;28;20092;-87
2023/08/26 04:16:03;;;;;;;8.65;5.53;;;;;;;16.70;100.00;100736.88;4997050;28;20049;-83
2023/08/26 04:18:29;;;;;;;15.05;5.65;;;;;;;16.60;100.00;100737.81;4989591;28;20033;-83
2023/08/26 04:20:58;;;;;;;13.73;5.95;;;;;;;16.86;100.00;100736.25;4997441;28;20032;-82
2023/08/26 04:23:23;;;;;;;10.95;5.38;;;;;;;16.53;100.00;100727.41;4996231;28;20037;-82
2023/08/26 04:25:51;;;;;;;11.55;4.93;;;;;;;16.64;100.00;100744.22;4999447;28;20034;-82
2023/08/26 04:28:16;;;;;;;7.35;5.10;;;;;;;16.61;100.00;100742.22;5000517;28;20137;-83
2023/08/26 04:30:42;;;;;;;8.35;4.95;;;;;;;16.66;100.00;100747.41;4996322;28;20026;-82
2023/08/26 04:33:08;;;;;;;10.02;5.68;;;;;;;16.62;100.00;100743.84;4990149;28;20026;-83
2023/08/26 04:35:34;;;;;;;12.18;5.05;;;;;;;16.52;100.00;100747.59;4993232;28;20029;-84
2023/08/26 04:38:03;;;;;;;9.98;5.15;;;;;;;16.75;100.00;100727.91;4993090;28;20032;-83
2023/08/26 04:40:28;;;;;;;7.72;5.47;;;;;;;16.61;100.00;100745.03;4992293;28;20045;-82
2023/08/26 04:42:54;;;;;;;12.07;5.63;;;;;;;16.66;100.00;100744.59;4995948;28;20042;-82
2023/08/26 04:45:20;;;;;;;10.00;6.40;;;;;;;16.61;100.00;100757.16;4995725;28;20202;-82
2023/08/26 04:47:46;;;;;;;14.10;6.47;;;;;;;16.55;100.00;100749.56;5000919;28;20033;-83
2023/08/26 04:50:12;;;;;;;11.77;5.75;;;;;;;16.59;100.00;100753.97;4997483;28;20034;-82
2023/08/26 04:52:39;;;;;;;12.32;5.78;;;;;;;16.46;100.00;100747.25;4995574;28;20026;-82
2023/08/26 04:55:09;;;;;;;11.95;6.53;;;;;;;16.52;100.00;100756.06;4994451;28;20026;-82
2023/08/26 04:57:34;;;;;;;8.63;5.60;;;;;;;16.59;100.00;100753.13;4993651;28;20030;-82
2023/08/26 05:00:00;;;;;;;9.65;6.00;;;;;;;16.74;100.00;100760.22;4993562;28;20050;-82
2023/08/26 05:02:25;;;;;;;9.88;6.20;;;;;;;16.72;100.00;100762.69;4994245;28;20116;-82
2023/08/26 05:04:51;;;;;;;8.02;5.65;;;;;;;16.83;100.00;100757.72;5000008;28;20040;-84
2023/08/26 05:07:17;;;;;;;11.63;5.63;;;;;;;16.76;100.00;100762.63;4997158;28;20041;-82
2023/08/26 05:09:42;;;;;;;10.98;6.25;;;;;;;16.50;100.00;100766.97;4997518;28;20418;-82
2023/08/26 05:12:08;;;;;;;20.50;6.18;;;;;;;16.68;100.00;100776.06;5000540;28;20128;-82
2023/08/26 05:14:33;;;;;;;12.77;6.97;;;;;;;16.50;100.00;100766.97;4993457;28;20046;-82
2023/08/26 05:16:59;;;;;;;12.77;6.88;;;;;;;16.42;100.00;100772.72;4997200;28;20155;-82
2023/08/26 05:19:24;;;;;;;11.75;7.05;;;;;;;16.44;100.00;100775.13;5000553;28;20243;-82
2023/08/26 05:21:50;;;;;;;15.30;6.22;;;;;;;16.58;100.00;100779.81;5004455;28;20060;-89
2023/08/26 05:24:15;;;;;;;11.25;7.68;;;;;;;16.45;100.00;100777.53;5000382;28;20065;-91
2023/08/26 05:26:42;;;;;;;10.43;6.97;;;;;;;16.31;100.00;100780.50;5002782;28;20041;-91
2023/08/26 05:29:08;;;;;;;13.73;7.22;;;;;;;16.16;100.00;100779.06;4994890;28;20040;-90
2023/08/26 05:31:34;;;;;;;11.75;6.10;;;;;;;16.28;100.00;100787.00;4995846;28;20042;-85
2023/08/26 05:33:59;;;;;;;11.70;6.35;;;;;;;16.47;100.00;100785.59;4999054;28;20068;-89
2023/08/26 05:36:24;;;;;;;13.30;6.13;;;;;;;16.43;100.00;100791.25;5017109;28;20380;-91
2023/08/26 05:38:50;;;;;;;10.23;6.25;;;;;;;15.96;100.00;100779.66;5004495;28;20025;-86
2023/08/26 05:41:16;;;;;;;13.90;5.25;;;;;;;16.29;100.00;100785.75;5007499;28;20029;-90
2023/08/26 05:43:41;;;;;;;13.05;6.80;;;;;;;16.26;100.00;100792.28;5001798;28;20065;-90
2023/08/26 05:46:06;;;;;;;8.70;5.25;;;;;;;16.31;100.00;100793.81;5002091;28;20096;-89
2023/08/26 05:48:32;;;;;;;8.73;5.30;;;;;;;16.46;100.00;100795.28;5010099;28;20026;-89
2023/08/26 05:50:58;;;;;;;15.40;7.13;;;;;;;16.31;100.00;100794.63;5007324;28;20149;-89
2023/08/26 05:53:24;;;;;;;10.70;5.50;;;;;;;16.48;100.00;100798.47;5006849;28;20116;-89
2023/08/26 05:55:50;;;;;;;10.93;6.63;;;;;;;16.33;100.00;100797.03;5010059;28;20404;-91
2023/08/26 05:58:15;;;;;;;14.70;6.75;;;;;;;16.30;100.00;100801.50;5021620;28;20026;-90
2023/08/26 06:00:41;;;;;;;9.75;6.53;;;;;;;16.28;100.00;100805.97;4998929;28;20029;-91
2023/08/26 06:03:06;;;;;;;11.55;6.65;;;;;;;16.35;100.00;100809.50;5004078;28;20029;-89
2023/08/26 06:05:31;;;;;;;13.15;6.43;;;;;;;16.11;100.00;100799.28;5004353;28;20026;-88
2023/08/26 06:07:57;;;;;;;14.80;5.85;;;;;;;16.24;100.00;100806.00;5003268;28;20054;-88
2023/08/26 06:10:23;;;;;;;14.18;7.43;;;;;;;16.23;100.00;100807.22;5004211;28;20079;-90
2023/08/26 06:12:48;;;;;;;11.15;7.88;;;;;;;16.23;100.00;100804.38;5004046;28;20034;-91
2023/08/26 06:15:14;;;;;;;15.38;7.22;;;;;;;16.39;100.00;100813.09;4998401;28;20401;-86
2023/08/26 06:17:41;;;;;;;13.32;7.35;;;;;;;16.54;100.00;100807.31;4995546;28;20029;-87
2023/08/26 06:20:07;;;;;;;14.68;6.45;;;;;;;16.52;100.00;100812.56;4991274;28;20029;-89
2023/08/26 06:22:34;;;;;;;12.43;6.65;;;;;;;16.56;100.00;100805.66;4998342;28;20081;-89
2023/08/26 06:24:59;;;;;;;11.32;7.40;;;;;;;16.26;100.00;100814.88;4997084;28;20033;-87
2023/08/26 06:27:29;;;;;;;10.48;6.88;;;;;;;16.31;100.00;100803.09;5001595;28;20030;-90
2023/08/26 06:29:55;;;;;;;13.02;7.28;;;;;;;16.24;100.00;100806.81;4989103;28;20173;-88
2023/08/26 06:32:27;;;;;;;11.88;6.80;;;;;;;16.28;100.00;100806.78;4999112;28;20500;-89
2023/08/26 06:34:53;;;;;;;18.13;6.78;;;;;;;16.29;100.00;100801.91;5000591;28;20032;-91
2023/08/26 06:37:18;;;;;;;14.98;7.70;;;;;;;16.31;100.00;100791.78;4999601;28;20030;-90
2023/08/26 06:39:44;;;;;;;11.68;6.80;;;;;;;16.52;100.00;100809.75;4998104;28;20128;-90
2023/08/26 06:42:10;;;;;;;12.73;8.10;;;;;;;16.36;100.00;100813.13;4998521;28;20113;-89
2023/08/26 06:44:36;;;;;;;13.82;7.63;;;;;;;16.09;100.00;100819.47;4995042;28;20076;-88
2023/08/26 06:47:01;;;;;;;14.48;7.40;;;;;;;16.31;100.00;100810.78;4998163;28;20037;-90
2023/08/26 06:49:27;;;;;;;9.25;6.20;;;;;;;16.50;100.00;100818.63;4995137;28;20414;-89
2023/08/26 06:51:52;;;;;;;12.88;6.78;;;;;;;16.47;100.00;100816.66;4992395;28;20603;-90
2023/08/26 06:54:17;;;;;;;13.20;6.60;;;;;;;16.52;100.00;100815.41;4990932;28;20033;-88
2023/08/26 06:56:43;;;;;;;11.38;7.05;;;;;;;16.53;100.00;100819.81;5008674;28;20580;-88
2023/08/26 06:59:08;;;;;;;11.77;5.72;;;;;;;16.33;100.00;100819.63;4998029;28;20539;-89
2023/08/26 07:01:34;;;;;;;8.50;5.78;;;;;;;16.58;100.00;100813.72;4998554;28;20041;-90
2023/08/26 07:04:07;;;;;;;12.73;6.35;;;;;;;16.42;100.00;100817.94;5002545;28;20079;-91
2023/08/26 07:06:33;;;;;;;12.32;6.03;;;;;;;16.59;100.00;100809.66;5000007;28;20430;-91
2023/08/26 07:08:59;;;;;;;14.38;5.88;;;;;;;16.67;100.00;100808.34;4995076;28;20313;-91
2023/08/26 07:11:25;;;;;;;9.77;5.40;;;;;;;16.79;100.00;100813.47;5003384;28;20105;-90
2023/08/26 07:13:51;;;;;;;9.63;4.38;;;;;;;16.84;100.00;100815.03;4996748;28;20056;-90
2023/08/26 07:16:16;;;;;;;9.38;5.50;;;;;;;16.75;100.00;100821.19;4989309;28;20049;-89
2023/08/26 07:18:42;;;;;;;7.30;5.43;;;;;;;16.72;100.00;100819.22;4994992;28;20042;-89
2023/08/26 07:21:07;;;;;;;5.75;3.67;;;;;;;17.32;100.00;100818.88;4998276;28;20037;-80
2023/08/26 07:23:36;;;;;;;4.72;3.67;;;;;;;18.61;100.00;100816.69;4989755;28;20022;-86
2023/08/26 07:26:02;;;;;;;6.38;4.22;;;;;;;18.61;100.00;100825.19;4998461;28;20041;-86
2023/08/26 07:28:27;;;;;;;7.72;4.15;;;;;;;19.09;100.00;100816.13;5001766;28;20030;-86
2023/08/26 07:30:53;;;;;;;4.53;2.58;;;;;;;18.99;100.00;100822.03;4997079;28;20084;-86
2023/08/26 07:33:19;;;;;;;9.18;4.63;;;;;;;19.47;100.00;100829.06;5001782;28;20529;-87
2023/08/26 07:35:44;;;;;;;5.55;3.55;;;;;;;19.36;100.00;100823.66;5000063;28;20116;-86
2023/08/26 07:38:09;;;;;;;7.45;2.92;;;;;;;19.39;100.00;100827.63;4996913;28;20022;-87
2023/08/26 07:40:35;;;;;;;6.03;3.83;;;;;;;18.86;100.00;100824.72;4997875;28;20034;-87
2023/08/26 07:43:00;;;;;;;5.57;3.08;;;;;;;18.69;100.00;100810.44;4997249;28;20528;-84
2023/08/26 07:45:26;;;;;;;7.97;4.90;;;;;;;18.07;100.00;100817.69;4992063;28;20052;-84
2023/08/26 07:47:51;;;;;;;10.35;4.82;;;;;;;17.54;100.00;100820.16;5000200;28;20033;-83
2023/08/26 07:50:17;;;;;;;8.90;4.10;;;;;;;17.38;100.00;100815.13;4996826;28;20034;-83
2023/08/26 07:52:42;;;;;;;12.02;3.97;;;;;;;17.21;100.00;100816.97;4997640;28;20397;-84
2023/08/26 07:55:08;;;;;;;5.95;3.67;;;;;;;17.25;100.00;100829.03;5000424;28;20032;-83
2023/08/26 07:57:34;;;;;;;8.57;4.82;;;;;;;17.20;100.00;100829.53;5005127;28;20080;-83
2023/08/26 07:59:59;;;;;;;11.90;4.47;;;;;;;17.33;100.00;100834.59;5005718;28;20044;-82
2023/08/26 08:02:25;;;;;;;7.45;3.15;;;;;;;17.91;100.00;100829.69;4994583;28;20031;-83
2023/08/26 08:04:50;;;;;;;8.10;3.40;;;;;;;18.68;100.00;100834.38;4998419;28;20060;-83
2023/08/26 08:07:15;;;;;;;7.13;3.60;;;;;;;18.39;100.00;100836.94;5002141;28;20046;-83
2023/08/26 08:09:41;;;;;;;5.88;4.18;;;;;;;18.06;100.00;100825.38;4991919;28;20185;-83
2023/08/26 08:12:08;;;;;;;7.70;3.67;;;;;;;17.63;100.00;100836.59;5005251;28;20037;-84
2023/08/26 08:14:33;;;;;;;9.75;4.30;;;;;;;17.64;100.00;100850.28;4995630;28;20114;-76
2023/08/26 08:16:59;;;;;;;10.38;3.35;;;;;;;17.64;100.00;100850.28;5005546;28;20466;-82
2023/08/26 08:19:24;;;;;;;4.60;3.58;;;;;;;17.76;100.00;100862.28;5004519;28;20394;-81
2023/08/26 08:21:51;;;;;;;6.43;3.63;;;;;;;17.85;100.00;100863.34;5006898;28;20124;-81
2023/08/26 08:24:17;;;;;;;10.88;3.50;;;;;;;17.68;100.00;100862.38;5008115;28;20029;-82
2023/08/26 08:26:43;;;;;;;7.60;3.13;;;;;;;17.82;100.00;100866.22;5006406;28;22173;-83
2023/08/26 08:29:10;;;;;;;4.47;2.92;;;;;;;17.92;100.00;100875.78;4997545;28;20392;-83
2023/08/26 08:31:36;;;;;;;5.88;2.92;;;;;;;17.92;100.00;100870.13;5002217;28;20105;-83
2023/08/26 08:34:03;;;;;;;7.03;2.83;;;;;;;17.96;100.00;100871.69;5004603;28;20125;-84
2023/08/26 08:36:29;;;;;;;6.22;2.85;;;;;;;17.96;100.00;100868.03;4999748;28;20026;-83
2023/08/26 08:38:54;;;;;;;9.32;4.15;;;;;;;17.87;100.00;100865.75;5002558;28;20056;-82
2023/08/26 08:41:20;;;;;;;4.88;2.60;;;;;;;17.94;100.00;100874.16;5002734;28;20510;-82
2023/08/26 08:43:48;;;;;;;5.43;3.05;;;;;;;17.80;100.00;100874.34;5002800;28;20454;-84
2023/08/26 08:46:15;;;;;;;4.57;2.67;;;;;;;17.97;100.00;100878.94;5003706;28;20030;-84
2023/08/26 08:48:41;;;;;;;5.63;2.53;;;;;;;17.95;100.00;100878.56;5004268;28;20026;-84
2023/08/26 08:51:08;;;;;;;6.38;2.58;;;;;;;17.95;100.00;100874.94;4997668;28;20041;-83
2023/08/26 08:53:40;;;;;;;6.65;2.05;;;;;;;17.98;100.00;100869.25;4995218;28;20034;-80
2023/08/26 08:56:06;;;;;;;5.30;2.58;;;;;;;18.02;100.00;100867.13;4987750;28;20473;-83
2023/08/26 08:58:32;;;;;;;5.63;2.33;;;;;;;18.09;100.00;100869.06;5015092;28;20400;-86
2023/08/26 09:00:58;;;;;;;7.55;2.35;;;;;;;18.27;100.00;100874.41;5009470;28;20257;-85
2023/08/26 09:03:24;;;;;;;9.20;2.55;;;;;;;18.26;100.00;100865.13;4993639;28;20710;-85
2023/08/26 09:05:51;;;;;;;3.97;2.38;;;;;;;18.42;100.00;100864.41;4998503;28;20107;-84
2023/08/26 09:08:19;;;;;;;4.53;2.22;;;;;;;18.57;100.00;100869.81;4998594;28;20026;-85
2023/08/26 09:10:47;;;;;;;3.78;2.10;;;;;;;18.47;100.00;100875.25;4999536;28;20384;-85
2023/08/26 09:13:12;;;;;;;4.03;2.08;;;;;;;18.34;100.00;100882.78;5003572;28;20030;-87
2023/08/26 09:15:41;;;;;;;6.45;2.25;;;;;;;18.27;100.00;100880.06;4993673;28;20048;-86
2023/08/26 09:18:12;;;;;;;3.65;1.77;;;;;;;18.28;100.00;100876.03;4997668;28;20022;-85
2023/08/26 09:20:40;;;;;;;3.72;1.80;;;;;;;18.24;100.00;100869.63;5004025;28;20485;-85
2023/08/26 09:23:07;;;;;;;6.70;2.83;;;;;;;18.33;100.00;100869.06;4991287;28;20037;-83
2023/08/26 09:25:34;;;;;;;3.65;1.85;;;;;;;18.38;100.00;100872.16;4996473;28;20088;-83
2023/08/26 09:27:59;;;;;;;6.00;2.53;;;;;;;18.26;100.00;100861.47;5001078;28;20034;-85
2023/08/26 09:30:25;;;;;;;6.50;2.40;;;;;;;18.49;100.00;100846.50;4995535;28;20617;-86
2023/08/26 09:32:52;;;;;;;10.73;2.45;;;;;;;18.52;100.00;100859.00;5006870;28;20049;-85
2023/08/26 09:35:18;;;;;;;5.30;2.20;;;;;;;18.53;100.00;100863.41;5003736;28;20833;-86
2023/08/26 09:37:55;;;;;;;5.32;2.10;;;;;;;18.57;100.00;100870.59;4999661;28;20030;-85
2023/08/26 09:40:21;;;;;;;6.18;2.40;;;;;;;18.70;100.00;100867.97;5002200;28;20500;-85
2023/08/26 09:42:46;;;;;;;4.22;2.33;;;;;;;18.91;98.59;100865.94;4996320;28;20034;-85
2023/08/26 09:45:17;;;;;;;4.53;2.00;;;;;;;18.84;98.60;100864.84;4997402;28;20022;-85
2023/08/26 09:47:45;;;;;;;3.97;2.17;;;;;;;18.84;99.01;100870.53;5001860;28;20032;-86
2023/08/26 09:50:10;;;;;;;3.65;2.20;;;;;;;18.89;100.00;100869.25;5000428;28;20038;-86
2023/08/26 09:52:41;;;;;;;4.78;2.13;;;;;;;18.91;100.00;100871.63;4999676;28;20031;-86
2023/08/26 09:55:08;;;;;;;6.43;2.40;;;;;;;18.81;98.36;100871.41;5002066;28;20026;-86
2023/08/26 09:57:33;;;;;;;2.42;1.77;;;;;;;18.86;98.94;100873.72;5000350;28;20026;-87
2023/08/26 09:59:59;;;;;;;5.70;2.20;;;;;;;19.02;98.57;100869.38;4996425;28;20041;-86
2023/08/26 10:02:25;;;;;;;3.13;1.63;;;;;;;19.15;97.39;100876.00;4994085;28;20517;-86
2023/08/26 10:04:56;;;;;;;6.03;1.65;;;;;;;19.21;96.34;100879.91;4994031;28;20030;-87
2023/08/26 10:07:27;;;;;;;3.22;1.30;;;;;;;19.16;94.53;100883.25;5002923;28;20398;-87
2023/08/26 10:10:07;;;;;;;5.40;1.60;;;;;;;19.12;96.21;100888.22;4997726;28;20039;-86
2023/08/26 10:12:39;;;;;;;5.60;1.65;;;;;;;19.15;96.28;100881.66;4999044;28;20105;-83
2023/08/26 10:15:10;;;;;;;4.00;2.05;;;;;;;19.24;95.84;100890.38;5002528;28;20050;-85
2023/08/26 10:17:39;;;;;;;1.95;1.30;;;;;;;19.22;92.42;100892.84;5004544;28;20033;-84
2023/08/26 10:20:06;;;;;;;3.95;1.40;;;;;;;19.79;100.00;100878.66;4998444;28;20064;-88
2023/08/26 10:22:32;;;;;;;5.35;1.65;;;;;;;19.59;96.67;100888.00;5005561;28;20041;-89
2023/08/26 10:24:58;;;;;;;5.68;1.80;;;;;;;19.75;91.94;100889.31;5010367;28;20390;-91
2023/08/26 10:27:24;;;;;;;7.93;2.03;;;;;;;20.08;96.50;100890.94;5000249;28;20367;-89
2023/08/26 10:29:50;;;;;;;4.05;1.30;;;;;;;19.82;94.10;100889.16;5002157;28;20033;-91
2023/08/26 10:32:17;;;;;;;4.75;1.50;;;;;;;19.82;92.92;100900.50;4989961;28;21664;-93
2023/08/26 10:35:09;;;;;;;2.00;1.25;;;;;;;19.93;96.28;100894.56;5008664;28;20113;-91
2023/08/26 10:37:34;;;;;;;1.85;1.67;;;;;;;20.01;95.33;100879.75;5000285;28;20030;-84
2023/08/26 10:40:08;;;;;;;5.07;1.52;;;;;;;20.08;93.22;100893.75;5002207;28;20057;-85
2023/08/26 10:43:04;;;;;;;2.65;1.40;;;;;;;20.08;87.83;100902.28;4999632;28;20474;-87
2023/08/26 10:45:29;;;;;;;4.72;1.90;;;;;;;20.45;93.97;100905.84;4997878;28;20706;-89
2023/08/26 10:47:55;;;;;;;1.83;1.27;;;;;;;20.44;87.59;100901.38;5005555;28;20171;-89
2023/08/26 10:50:22;;;;;;;1.42;1.10;;;;;;;20.39;89.01;100901.94;4999228;28;20046;-91
2023/08/26 10:52:58;;;;;;;6.70;1.65;;;;;;;20.00;91.64;100900.88;5005488;28;20030;-91
2023/08/26 10:55:25;;;;;;;4.05;1.70;;;;;;;20.14;94.14;100905.41;5002624;28;20034;-88
2023/08/26 10:58:01;;;;;;;2.55;1.30;;;;;;;20.18;91.03;100902.50;4999759;28;20033;-88
2023/08/26 11:00:27;;;;;;;2.95;2.10;;;;;;;19.82;94.10;100894.84;4999731;28;20034;-93
2023/08/26 11:02:55;;;;;;;3.55;1.65;;;;;;;19.52;93.32;100887.34;4996194;28;20505;-91
2023/08/26 11:05:21;;;;;;;3.00;1.30;;;;;;;19.42;94.87;100884.31;5015644;28;20053;-91
2023/08/26 11:07:47;;;;;;;3.05;1.70;;;;;;;19.28;89.95;100896.78;4993490;28;20434;-90
2023/08/26 11:10:25;;;;;;;3.42;1.45;;;;;;;19.70;93.60;100899.94;5001906;28;20038;-92
2023/08/26 11:12:51;;;;;;;2.88;1.27;;;;;;;19.97;94.48;100896.09;5005029;28;20038;-91